sensor_id;sensor_type;location;lat;lon;timestamp;temperature;humidity
20487;DHT22;10402;49.012;8.370;2023-09-07T00:01:27;19.30;72.70
20487;DHT22;10402;49.012;8.370;2023-09-07T00:03:53;19.30;72.70
20487;DHT22;10402;49.012;8.370;2023-09-07T00:06:18;19.30;72.60
20487;DHT22;10402;49.012;8.370;2023-09-07T00:08:44;19.40;72.80
20487;DHT22;10402;49.012;8.370;2023-09-07T00:11:10;19.30;72.90
20487;DHT22;10402;49.012;8.370;2023-09-07T00:13:35;19.30;73.30
20487;DHT22;10402;49.012;8.370;2023-09-07T00:16:03;19.10;73.30
20487;DHT22;10402;49.012;8.370;2023-09-07T00:18:30;19.10;73.70
20487;DHT22;10402;49.012;8.370;2023-09-07T00:20:56;19.00;73.80
20487;DHT22;10402;49.012;8.370;2023-09-07T00:23:22;19.00;73.90
20487;DHT22;10402;49.012;8.370;2023-09-07T00:25:48;19.00;73.90
20487;DHT22;10402;49.012;8.370;2023-09-07T00:28:14;19.10;73.90
20487;DHT22;10402;49.012;8.370;2023-09-07T00:30:39;19.00;73.80
20487;DHT22;10402;49.012;8.370;2023-09-07T00:33:06;19.00;74.00
20487;DHT22;10402;49.012;8.370;2023-09-07T00:35:31;19.00;74.10
20487;DHT22;10402;49.012;8.370;2023-09-07T00:37:57;19.00;74.30
20487;DHT22;10402;49.012;8.370;2023-09-07T00:40:22;19.00;74.40
20487;DHT22;10402;49.012;8.370;2023-09-07T00:42:48;19.00;74.60
20487;DHT22;10402;49.012;8.370;2023-09-07T00:45:14;19.00;74.50
20487;DHT22;10402;49.012;8.370;2023-09-07T00:47:40;18.90;74.60
20487;DHT22;10402;49.012;8.370;2023-09-07T00:50:06;18.90;74.80
20487;DHT22;10402;49.012;8.370;2023-09-07T00:52:32;18.90;75.00
20487;DHT22;10402;49.012;8.370;2023-09-07T00:55:01;18.90;75.00
20487;DHT22;10402;49.012;8.370;2023-09-07T00:57:27;18.80;75.10
20487;DHT22;10402;49.012;8.370;2023-09-07T00:59:52;18.80;75.30
20487;DHT22;10402;49.012;8.370;2023-09-07T01:02:18;18.80;75.60
20487;DHT22;10402;49.012;8.370;2023-09-07T01:04:43;18.80;75.60
20487;DHT22;10402;49.012;8.370;2023-09-07T01:07:22;18.70;75.70
20487;DHT22;10402;49.012;8.370;2023-09-07T01:09:52;18.70;75.90
20487;DHT22;10402;49.012;8.370;2023-09-07T01:12:19;18.60;76.00
20487;DHT22;10402;49.012;8.370;2023-09-07T01:18:08;18.60;76.40
20487;DHT22;10402;49.012;8.370;2023-09-07T01:20:35;18.60;76.30
20487;DHT22;10402;49.012;8.370;2023-09-07T01:23:02;18.70;76.10
20487;DHT22;10402;49.012;8.370;2023-09-07T01:25:28;18.70;75.90
20487;DHT22;10402;49.012;8.370;2023-09-07T01:27:54;18.70;75.70
20487;DHT22;10402;49.012;8.370;2023-09-07T01:30:20;18.70;75.60
20487;DHT22;10402;49.012;8.370;2023-09-07T01:32:45;18.70;75.70
20487;DHT22;10402;49.012;8.370;2023-09-07T01:35:12;18.70;75.60
20487;DHT22;10402;49.012;8.370;2023-09-07T01:37:40;18.70;75.70
20487;DHT22;10402;49.012;8.370;2023-09-07T01:40:06;18.70;75.70
20487;DHT22;10402;49.012;8.370;2023-09-07T01:42:33;18.70;75.70
20487;DHT22;10402;49.012;8.370;2023-09-07T01:44:58;18.60;75.50
20487;DHT22;10402;49.012;8.370;2023-09-07T01:47:24;18.60;75.70
20487;DHT22;10402;49.012;8.370;2023-09-07T01:49:49;18.60;75.80
20487;DHT22;10402;49.012;8.370;2023-09-07T01:52:15;18.60;75.90
20487;DHT22;10402;49.012;8.370;2023-09-07T01:54:40;18.50;75.90
20487;DHT22;10402;49.012;8.370;2023-09-07T01:57:06;18.50;76.00
20487;DHT22;10402;49.012;8.370;2023-09-07T01:59:32;18.50;76.00
20487;DHT22;10402;49.012;8.370;2023-09-07T02:01:57;18.50;75.80
20487;DHT22;10402;49.012;8.370;2023-09-07T02:04:23;18.60;75.80
20487;DHT22;10402;49.012;8.370;2023-09-07T02:06:48;18.50;75.80
20487;DHT22;10402;49.012;8.370;2023-09-07T02:09:14;18.50;76.10
20487;DHT22;10402;49.012;8.370;2023-09-07T02:11:39;18.50;76.10
20487;DHT22;10402;49.012;8.370;2023-09-07T02:14:06;18.50;76.00
20487;DHT22;10402;49.012;8.370;2023-09-07T02:16:31;18.50;75.80
20487;DHT22;10402;49.012;8.370;2023-09-07T02:19:06;18.50;75.70
20487;DHT22;10402;49.012;8.370;2023-09-07T02:21:32;18.50;75.80
20487;DHT22;10402;49.012;8.370;2023-09-07T02:23:58;18.40;75.90
20487;DHT22;10402;49.012;8.370;2023-09-07T02:26:24;18.40;76.00
20487;DHT22;10402;49.012;8.370;2023-09-07T02:28:49;18.30;76.00
20487;DHT22;10402;49.012;8.370;2023-09-07T02:31:15;18.40;76.10
20487;DHT22;10402;49.012;8.370;2023-09-07T02:33:41;18.30;76.00
20487;DHT22;10402;49.012;8.370;2023-09-07T02:36:06;18.40;76.10
20487;DHT22;10402;49.012;8.370;2023-09-07T02:38:32;18.40;76.00
20487;DHT22;10402;49.012;8.370;2023-09-07T02:40:57;18.30;76.00
20487;DHT22;10402;49.012;8.370;2023-09-07T02:43:23;18.30;76.10
20487;DHT22;10402;49.012;8.370;2023-09-07T02:45:49;18.30;76.20
20487;DHT22;10402;49.012;8.370;2023-09-07T02:48:15;18.20;76.10
20487;DHT22;10402;49.012;8.370;2023-09-07T02:50:41;18.30;76.20
20487;DHT22;10402;49.012;8.370;2023-09-07T02:53:07;18.30;76.10
20487;DHT22;10402;49.012;8.370;2023-09-07T02:55:33;18.30;76.10
20487;DHT22;10402;49.012;8.370;2023-09-07T02:58:02;18.20;76.00
20487;DHT22;10402;49.012;8.370;2023-09-07T03:00:28;18.20;76.10
20487;DHT22;10402;49.012;8.370;2023-09-07T03:02:54;18.20;76.10
20487;DHT22;10402;49.012;8.370;2023-09-07T03:05:19;18.20;76.40
20487;DHT22;10402;49.012;8.370;2023-09-07T03:07:46;18.10;76.40
20487;DHT22;10402;49.012;8.370;2023-09-07T03:10:12;18.10;76.40
20487;DHT22;10402;49.012;8.370;2023-09-07T03:12:38;18.20;76.60
20487;DHT22;10402;49.012;8.370;2023-09-07T03:15:04;18.10;76.40
20487;DHT22;10402;49.012;8.370;2023-09-07T03:17:30;18.20;76.50
20487;DHT22;10402;49.012;8.370;2023-09-07T03:19:56;18.20;76.60
20487;DHT22;10402;49.012;8.370;2023-09-07T03:22:23;18.20;76.60
20487;DHT22;10402;49.012;8.370;2023-09-07T03:24:50;18.20;76.60
20487;DHT22;10402;49.012;8.370;2023-09-07T03:27:16;18.20;76.70
20487;DHT22;10402;49.012;8.370;2023-09-07T03:29:42;18.20;76.60
20487;DHT22;10402;49.012;8.370;2023-09-07T03:32:07;18.20;76.50
20487;DHT22;10402;49.012;8.370;2023-09-07T03:34:33;18.20;76.60
20487;DHT22;10402;49.012;8.370;2023-09-07T03:36:59;18.20;76.50
20487;DHT22;10402;49.012;8.370;2023-09-07T03:39:25;18.20;76.50
20487;DHT22;10402;49.012;8.370;2023-09-07T03:41:51;18.20;76.40
20487;DHT22;10402;49.012;8.370;2023-09-07T03:44:17;18.20;76.30
20487;DHT22;10402;49.012;8.370;2023-09-07T03:46:43;18.20;76.30
20487;DHT22;10402;49.012;8.370;2023-09-07T03:49:08;18.20;76.50
20487;DHT22;10402;49.012;8.370;2023-09-07T03:51:34;18.20;76.50
20487;DHT22;10402;49.012;8.370;2023-09-07T03:53:59;18.20;76.30
20487;DHT22;10402;49.012;8.370;2023-09-07T03:56:25;18.20;76.40
20487;DHT22;10402;49.012;8.370;2023-09-07T03:58:51;18.10;76.40
20487;DHT22;10402;49.012;8.370;2023-09-07T04:01:17;18.10;76.40
20487;DHT22;10402;49.012;8.370;2023-09-07T04:03:42;18.10;76.40
20487;DHT22;10402;49.012;8.370;2023-09-07T04:06:08;18.00;76.40
20487;DHT22;10402;49.012;8.370;2023-09-07T04:08:33;17.90;76.30
20487;DHT22;10402;49.012;8.370;2023-09-07T04:11:03;18.00;76.70
20487;DHT22;10402;49.012;8.370;2023-09-07T04:13:29;17.90;76.80
20487;DHT22;10402;49.012;8.370;2023-09-07T04:15:55;17.90;77.00
20487;DHT22;10402;49.012;8.370;2023-09-07T04:18:20;17.90;77.00
20487;DHT22;10402;49.012;8.370;2023-09-07T04:20:46;17.80;77.00
20487;DHT22;10402;49.012;8.370;2023-09-07T04:23:12;17.80;77.10
20487;DHT22;10402;49.012;8.370;2023-09-07T04:25:46;17.70;77.20
20487;DHT22;10402;49.012;8.370;2023-09-07T04:28:11;17.80;77.40
20487;DHT22;10402;49.012;8.370;2023-09-07T04:30:38;17.70;77.40
20487;DHT22;10402;49.012;8.370;2023-09-07T04:33:04;17.70;77.50
20487;DHT22;10402;49.012;8.370;2023-09-07T04:35:29;17.70;77.70
20487;DHT22;10402;49.012;8.370;2023-09-07T04:37:58;17.60;77.90
20487;DHT22;10402;49.012;8.370;2023-09-07T04:40:24;17.60;77.90
20487;DHT22;10402;49.012;8.370;2023-09-07T04:42:50;17.60;77.90
20487;DHT22;10402;49.012;8.370;2023-09-07T04:45:15;17.60;77.90
20487;DHT22;10402;49.012;8.370;2023-09-07T04:47:41;17.50;77.90
20487;DHT22;10402;49.012;8.370;2023-09-07T04:50:07;17.50;78.30
20487;DHT22;10402;49.012;8.370;2023-09-07T04:52:32;17.40;78.40
20487;DHT22;10402;49.012;8.370;2023-09-07T04:55:00;17.30;78.50
20487;DHT22;10402;49.012;8.370;2023-09-07T04:57:25;17.30;78.60
20487;DHT22;10402;49.012;8.370;2023-09-07T04:59:51;17.30;79.00
20487;DHT22;10402;49.012;8.370;2023-09-07T05:02:16;17.20;79.00
20487;DHT22;10402;49.012;8.370;2023-09-07T05:04:42;17.10;79.30
20487;DHT22;10402;49.012;8.370;2023-09-07T05:07:08;17.10;79.70
20487;DHT22;10402;49.012;8.370;2023-09-07T05:09:33;17.10;79.80
20487;DHT22;10402;49.012;8.370;2023-09-07T05:11:59;17.10;79.80
20487;DHT22;10402;49.012;8.370;2023-09-07T05:14:25;17.10;79.70
20487;DHT22;10402;49.012;8.370;2023-09-07T05:16:50;17.10;79.40
20487;DHT22;10402;49.012;8.370;2023-09-07T05:19:16;17.10;79.30
20487;DHT22;10402;49.012;8.370;2023-09-07T05:21:42;17.10;79.30
20487;DHT22;10402;49.012;8.370;2023-09-07T05:24:08;17.10;79.30
20487;DHT22;10402;49.012;8.370;2023-09-07T05:26:33;17.00;79.20
20487;DHT22;10402;49.012;8.370;2023-09-07T05:28:59;17.00;79.40
20487;DHT22;10402;49.012;8.370;2023-09-07T05:31:24;17.00;79.60
20487;DHT22;10402;49.012;8.370;2023-09-07T05:33:50;17.00;79.80
20487;DHT22;10402;49.012;8.370;2023-09-07T05:36:17;16.90;79.80
20487;DHT22;10402;49.012;8.370;2023-09-07T05:38:42;16.90;80.00
20487;DHT22;10402;49.012;8.370;2023-09-07T05:41:08;16.90;80.10
20487;DHT22;10402;49.012;8.370;2023-09-07T05:43:34;17.00;80.30
20487;DHT22;10402;49.012;8.370;2023-09-07T05:45:59;17.00;80.30
20487;DHT22;10402;49.012;8.370;2023-09-07T05:48:25;17.00;80.20
20487;DHT22;10402;49.012;8.370;2023-09-07T05:50:50;17.10;80.20
20487;DHT22;10402;49.012;8.370;2023-09-07T05:53:19;17.10;80.20
20487;DHT22;10402;49.012;8.370;2023-09-07T05:55:45;17.20;80.30
20487;DHT22;10402;49.012;8.370;2023-09-07T05:58:12;17.20;80.20
20487;DHT22;10402;49.012;8.370;2023-09-07T06:00:38;17.20;80.00
20487;DHT22;10402;49.012;8.370;2023-09-07T06:03:05;17.30;80.10
20487;DHT22;10402;49.012;8.370;2023-09-07T06:05:33;17.30;80.00
20487;DHT22;10402;49.012;8.370;2023-09-07T06:07:58;17.40;80.10
20487;DHT22;10402;49.012;8.370;2023-09-07T06:10:24;17.40;80.00
20487;DHT22;10402;49.012;8.370;2023-09-07T06:12:50;17.40;80.10
20487;DHT22;10402;49.012;8.370;2023-09-07T06:15:15;17.50;80.10
20487;DHT22;10402;49.012;8.370;2023-09-07T06:17:41;17.60;80.20
20487;DHT22;10402;49.012;8.370;2023-09-07T06:20:07;17.70;80.10
20487;DHT22;10402;49.012;8.370;2023-09-07T06:22:33;17.80;80.00
20487;DHT22;10402;49.012;8.370;2023-09-07T06:24:59;17.90;80.00
20487;DHT22;10402;49.012;8.370;2023-09-07T06:27:25;17.90;79.80
20487;DHT22;10402;49.012;8.370;2023-09-07T06:29:50;18.00;79.80
20487;DHT22;10402;49.012;8.370;2023-09-07T06:32:16;18.00;79.70
20487;DHT22;10402;49.012;8.370;2023-09-07T06:34:42;18.20;79.70
20487;DHT22;10402;49.012;8.370;2023-09-07T06:37:07;18.20;79.60
20487;DHT22;10402;49.012;8.370;2023-09-07T06:39:33;18.30;79.60
20487;DHT22;10402;49.012;8.370;2023-09-07T06:41:58;18.30;79.50
20487;DHT22;10402;49.012;8.370;2023-09-07T06:44:24;18.40;79.30
20487;DHT22;10402;49.012;8.370;2023-09-07T06:46:50;18.60;79.40
20487;DHT22;10402;49.012;8.370;2023-09-07T06:49:15;18.60;79.10
20487;DHT22;10402;49.012;8.370;2023-09-07T06:51:41;18.70;79.10
20487;DHT22;10402;49.012;8.370;2023-09-07T06:54:06;18.70;79.00
20487;DHT22;10402;49.012;8.370;2023-09-07T06:56:32;18.80;79.00
20487;DHT22;10402;49.012;8.370;2023-09-07T06:59:00;18.90;78.80
20487;DHT22;10402;49.012;8.370;2023-09-07T07:01:25;19.00;78.80
20487;DHT22;10402;49.012;8.370;2023-09-07T07:03:51;19.10;78.70
20487;DHT22;10402;49.012;8.370;2023-09-07T07:06:16;19.10;78.50
20487;DHT22;10402;49.012;8.370;2023-09-07T07:08:42;19.20;78.40
20487;DHT22;10402;49.012;8.370;2023-09-07T07:11:07;19.30;78.30
20487;DHT22;10402;49.012;8.370;2023-09-07T07:13:33;19.30;78.30
20487;DHT22;10402;49.012;8.370;2023-09-07T07:15:59;19.40;78.10
20487;DHT22;10402;49.012;8.370;2023-09-07T07:18:24;19.40;77.90
20487;DHT22;10402;49.012;8.370;2023-09-07T07:20:50;19.50;78.00
20487;DHT22;10402;49.012;8.370;2023-09-07T07:23:16;19.60;78.70
20487;DHT22;10402;49.012;8.370;2023-09-07T07:25:42;19.70;77.70
20487;DHT22;10402;49.012;8.370;2023-09-07T07:28:08;19.80;77.60
20487;DHT22;10402;49.012;8.370;2023-09-07T07:30:34;19.80;77.30
20487;DHT22;10402;49.012;8.370;2023-09-07T07:33:01;19.90;77.10
20487;DHT22;10402;49.012;8.370;2023-09-07T07:35:30;19.90;76.90
20487;DHT22;10402;49.012;8.370;2023-09-07T07:37:55;20.00;76.90
20487;DHT22;10402;49.012;8.370;2023-09-07T07:40:21;20.10;76.80
20487;DHT22;10402;49.012;8.370;2023-09-07T07:42:47;20.20;76.80
20487;DHT22;10402;49.012;8.370;2023-09-07T07:45:13;20.20;76.60
20487;DHT22;10402;49.012;8.370;2023-09-07T07:47:40;20.30;76.60
20487;DHT22;10402;49.012;8.370;2023-09-07T07:50:07;20.40;76.60
20487;DHT22;10402;49.012;8.370;2023-09-07T07:52:32;20.40;76.40
20487;DHT22;10402;49.012;8.370;2023-09-07T07:54:58;20.50;76.30
20487;DHT22;10402;49.012;8.370;2023-09-07T07:57:23;20.60;76.40
20487;DHT22;10402;49.012;8.370;2023-09-07T07:59:49;20.60;76.20
20487;DHT22;10402;49.012;8.370;2023-09-07T08:02:14;20.70;76.10
20487;DHT22;10402;49.012;8.370;2023-09-07T08:04:40;20.80;76.00
20487;DHT22;10402;49.012;8.370;2023-09-07T08:07:06;20.80;75.60
20487;DHT22;10402;49.012;8.370;2023-09-07T08:09:34;21.00;75.30
20487;DHT22;10402;49.012;8.370;2023-09-07T08:11:59;21.00;75.10
20487;DHT22;10402;49.012;8.370;2023-09-07T08:14:29;21.10;75.10
20487;DHT22;10402;49.012;8.370;2023-09-07T08:16:56;21.20;75.00
20487;DHT22;10402;49.012;8.370;2023-09-07T08:19:21;21.20;74.80
20487;DHT22;10402;49.012;8.370;2023-09-07T08:21:47;21.30;74.50
20487;DHT22;10402;49.012;8.370;2023-09-07T08:24:13;21.40;74.10
20487;DHT22;10402;49.012;8.370;2023-09-07T08:26:39;21.40;73.90
20487;DHT22;10402;49.012;8.370;2023-09-07T08:29:05;21.50;73.90
20487;DHT22;10402;49.012;8.370;2023-09-07T08:31:37;21.60;73.50
20487;DHT22;10402;49.012;8.370;2023-09-07T08:34:05;21.70;73.20
20487;DHT22;10402;49.012;8.370;2023-09-07T08:36:31;21.70;73.10
20487;DHT22;10402;49.012;8.370;2023-09-07T08:38:59;21.80;73.00
20487;DHT22;10402;49.012;8.370;2023-09-07T08:41:26;21.90;73.00
20487;DHT22;10402;49.012;8.370;2023-09-07T08:43:53;21.90;72.70
20487;DHT22;10402;49.012;8.370;2023-09-07T08:46:19;22.00;72.70
20487;DHT22;10402;49.012;8.370;2023-09-07T08:48:51;22.00;72.50
20487;DHT22;10402;49.012;8.370;2023-09-07T08:51:19;22.00;72.50
20487;DHT22;10402;49.012;8.370;2023-09-07T08:53:44;22.00;72.40
20487;DHT22;10402;49.012;8.370;2023-09-07T08:56:13;22.10;72.50
20487;DHT22;10402;49.012;8.370;2023-09-07T08:58:38;22.10;72.20
20487;DHT22;10402;49.012;8.370;2023-09-07T09:01:05;22.20;72.10
20487;DHT22;10402;49.012;8.370;2023-09-07T09:03:31;22.30;72.10
20487;DHT22;10402;49.012;8.370;2023-09-07T09:05:57;22.40;71.90
20487;DHT22;10402;49.012;8.370;2023-09-07T09:08:23;22.50;71.70
20487;DHT22;10402;49.012;8.370;2023-09-07T09:11:01;22.50;71.20
20487;DHT22;10402;49.012;8.370;2023-09-07T09:13:30;22.60;71.10
20487;DHT22;10402;49.012;8.370;2023-09-07T09:15:59;22.60;70.80
20487;DHT22;10402;49.012;8.370;2023-09-07T09:18:25;22.70;70.40
20487;DHT22;10402;49.012;8.370;2023-09-07T09:20:52;22.80;70.30
20487;DHT22;10402;49.012;8.370;2023-09-07T09:23:18;22.80;70.20
20487;DHT22;10402;49.012;8.370;2023-09-07T09:25:43;22.90;70.20
20487;DHT22;10402;49.012;8.370;2023-09-07T09:28:09;22.90;69.70
20487;DHT22;10402;49.012;8.370;2023-09-07T09:30:38;23.00;69.70
20487;DHT22;10402;49.012;8.370;2023-09-07T09:33:05;23.10;70.00
20487;DHT22;10402;49.012;8.370;2023-09-07T09:35:32;23.10;69.50
20487;DHT22;10402;49.012;8.370;2023-09-07T09:38:01;23.30;69.50
20487;DHT22;10402;49.012;8.370;2023-09-07T09:40:33;23.40;68.80
20487;DHT22;10402;49.012;8.370;2023-09-07T09:43:02;23.40;68.60
20487;DHT22;10402;49.012;8.370;2023-09-07T09:45:29;23.40;68.50
20487;DHT22;10402;49.012;8.370;2023-09-07T09:47:55;23.50;68.30
20487;DHT22;10402;49.012;8.370;2023-09-07T09:50:26;23.50;68.00
20487;DHT22;10402;49.012;8.370;2023-09-07T09:52:52;23.50;68.00
20487;DHT22;10402;49.012;8.370;2023-09-07T09:55:21;23.60;68.00
20487;DHT22;10402;49.012;8.370;2023-09-07T09:57:47;23.70;67.80
20487;DHT22;10402;49.012;8.370;2023-09-07T10:00:13;23.80;67.60
20487;DHT22;10402;49.012;8.370;2023-09-07T10:02:44;23.90;67.10
20487;DHT22;10402;49.012;8.370;2023-09-07T10:05:11;23.90;66.90
20487;DHT22;10402;49.012;8.370;2023-09-07T10:07:48;23.90;67.00
20487;DHT22;10402;49.012;8.370;2023-09-07T10:10:14;24.00;66.90
20487;DHT22;10402;49.012;8.370;2023-09-07T10:12:51;24.10;66.70
20487;DHT22;10402;49.012;8.370;2023-09-07T10:15:23;24.10;66.60
20487;DHT22;10402;49.012;8.370;2023-09-07T10:17:48;24.20;66.30
20487;DHT22;10402;49.012;8.370;2023-09-07T10:20:19;24.20;66.50
20487;DHT22;10402;49.012;8.370;2023-09-07T10:22:46;24.30;66.50
20487;DHT22;10402;49.012;8.370;2023-09-07T10:25:22;24.30;66.60
20487;DHT22;10402;49.012;8.370;2023-09-07T10:27:48;24.40;66.70
20487;DHT22;10402;49.012;8.370;2023-09-07T10:30:14;24.40;66.50
20487;DHT22;10402;49.012;8.370;2023-09-07T10:32:45;24.50;66.30
20487;DHT22;10402;49.012;8.370;2023-09-07T10:35:19;24.50;66.20
20487;DHT22;10402;49.012;8.370;2023-09-07T10:37:47;24.50;66.20
20487;DHT22;10402;49.012;8.370;2023-09-07T10:40:18;24.60;66.10
20487;DHT22;10402;49.012;8.370;2023-09-07T10:42:43;24.60;66.20
20487;DHT22;10402;49.012;8.370;2023-09-07T10:45:13;24.70;65.70
20487;DHT22;10402;49.012;8.370;2023-09-07T10:47:44;24.70;65.50
20487;DHT22;10402;49.012;8.370;2023-09-07T10:50:12;24.80;65.40
20487;DHT22;10402;49.012;8.370;2023-09-07T10:52:39;24.80;65.30
20487;DHT22;10402;49.012;8.370;2023-09-07T10:55:07;24.90;65.40
20487;DHT22;10402;49.012;8.370;2023-09-07T10:57:44;24.90;65.20
20487;DHT22;10402;49.012;8.370;2023-09-07T11:00:11;25.00;65.00
20487;DHT22;10402;49.012;8.370;2023-09-07T11:02:38;25.00;64.70
20487;DHT22;10402;49.012;8.370;2023-09-07T11:05:04;25.00;64.60
20487;DHT22;10402;49.012;8.370;2023-09-07T11:07:29;25.10;64.70
20487;DHT22;10402;49.012;8.370;2023-09-07T11:09:55;25.10;64.70
20487;DHT22;10402;49.012;8.370;2023-09-07T11:12:21;25.10;64.70
20487;DHT22;10402;49.012;8.370;2023-09-07T11:14:47;25.20;64.40
20487;DHT22;10402;49.012;8.370;2023-09-07T11:17:16;25.30;64.10
20487;DHT22;10402;49.012;8.370;2023-09-07T11:19:42;25.30;64.20
20487;DHT22;10402;49.012;8.370;2023-09-07T11:22:11;25.30;64.30
20487;DHT22;10402;49.012;8.370;2023-09-07T11:24:37;25.30;64.20
20487;DHT22;10402;49.012;8.370;2023-09-07T11:27:02;25.40;64.30
20487;DHT22;10402;49.012;8.370;2023-09-07T11:29:31;25.40;64.10
20487;DHT22;10402;49.012;8.370;2023-09-07T11:32:10;25.40;64.00
20487;DHT22;10402;49.012;8.370;2023-09-07T11:34:50;25.50;63.90
20487;DHT22;10402;49.012;8.370;2023-09-07T11:37:18;25.50;63.80
20487;DHT22;10402;49.012;8.370;2023-09-07T11:39:44;25.50;63.60
20487;DHT22;10402;49.012;8.370;2023-09-07T11:42:10;25.60;63.50
20487;DHT22;10402;49.012;8.370;2023-09-07T11:44:35;25.60;63.30
20487;DHT22;10402;49.012;8.370;2023-09-07T11:47:01;25.70;63.30
20487;DHT22;10402;49.012;8.370;2023-09-07T11:49:26;25.70;63.30
20487;DHT22;10402;49.012;8.370;2023-09-07T11:51:52;25.70;63.00
20487;DHT22;10402;49.012;8.370;2023-09-07T11:54:17;25.80;63.00
20487;DHT22;10402;49.012;8.370;2023-09-07T11:56:43;25.80;62.90
20487;DHT22;10402;49.012;8.370;2023-09-07T11:59:11;26.00;62.60
20487;DHT22;10402;49.012;8.370;2023-09-07T12:01:36;26.00;62.50
20487;DHT22;10402;49.012;8.370;2023-09-07T12:04:02;26.10;62.40
20487;DHT22;10402;49.012;8.370;2023-09-07T12:06:29;26.10;61.50
20487;DHT22;10402;49.012;8.370;2023-09-07T12:09:03;26.20;60.90
20487;DHT22;10402;49.012;8.370;2023-09-07T12:11:29;26.20;60.90
20487;DHT22;10402;49.012;8.370;2023-09-07T12:13:56;26.30;61.10
20487;DHT22;10402;49.012;8.370;2023-09-07T12:16:21;26.30;61.00
20487;DHT22;10402;49.012;8.370;2023-09-07T12:18:47;26.30;61.30
20487;DHT22;10402;49.012;8.370;2023-09-07T12:21:12;26.40;61.40
20487;DHT22;10402;49.012;8.370;2023-09-07T12:23:38;26.30;61.30
20487;DHT22;10402;49.012;8.370;2023-09-07T12:26:04;26.40;60.70
20487;DHT22;10402;49.012;8.370;2023-09-07T12:28:32;26.40;60.70
20487;DHT22;10402;49.012;8.370;2023-09-07T12:30:58;26.40;60.70
20487;DHT22;10402;49.012;8.370;2023-09-07T12:33:24;26.40;60.70
20487;DHT22;10402;49.012;8.370;2023-09-07T12:35:50;26.40;60.70
20487;DHT22;10402;49.012;8.370;2023-09-07T12:38:16;26.40;60.40
20487;DHT22;10402;49.012;8.370;2023-09-07T12:40:44;26.50;60.00
20487;DHT22;10402;49.012;8.370;2023-09-07T12:43:10;26.60;60.00
20487;DHT22;10402;49.012;8.370;2023-09-07T12:45:35;26.60;60.00
20487;DHT22;10402;49.012;8.370;2023-09-07T12:48:01;26.60;59.90
20487;DHT22;10402;49.012;8.370;2023-09-07T12:50:27;26.70;60.00
20487;DHT22;10402;49.012;8.370;2023-09-07T12:52:53;26.70;59.50
20487;DHT22;10402;49.012;8.370;2023-09-07T12:55:19;26.80;59.20
20487;DHT22;10402;49.012;8.370;2023-09-07T12:57:45;26.80;59.00
20487;DHT22;10402;49.012;8.370;2023-09-07T13:00:12;26.80;59.00
20487;DHT22;10402;49.012;8.370;2023-09-07T13:02:37;26.90;58.80
20487;DHT22;10402;49.012;8.370;2023-09-07T13:05:03;27.00;58.20
20487;DHT22;10402;49.012;8.370;2023-09-07T13:07:33;27.00;58.20
20487;DHT22;10402;49.012;8.370;2023-09-07T13:10:01;27.00;58.10
20487;DHT22;10402;49.012;8.370;2023-09-07T13:12:29;27.10;58.10
20487;DHT22;10402;49.012;8.370;2023-09-07T13:14:55;27.10;58.80
20487;DHT22;10402;49.012;8.370;2023-09-07T13:17:20;27.10;58.20
20487;DHT22;10402;49.012;8.370;2023-09-07T13:19:46;27.10;58.40
20487;DHT22;10402;49.012;8.370;2023-09-07T13:22:13;27.10;58.30
20487;DHT22;10402;49.012;8.370;2023-09-07T13:24:39;27.20;58.40
20487;DHT22;10402;49.012;8.370;2023-09-07T13:27:05;27.30;58.00
20487;DHT22;10402;49.012;8.370;2023-09-07T13:29:32;27.30;58.10
20487;DHT22;10402;49.012;8.370;2023-09-07T13:31:58;27.40;57.50
20487;DHT22;10402;49.012;8.370;2023-09-07T13:34:24;27.40;57.40
20487;DHT22;10402;49.012;8.370;2023-09-07T13:36:50;27.40;57.20
20487;DHT22;10402;49.012;8.370;2023-09-07T13:39:15;27.40;57.20
20487;DHT22;10402;49.012;8.370;2023-09-07T13:41:41;27.40;57.20
20487;DHT22;10402;49.012;8.370;2023-09-07T13:44:06;27.40;57.30
20487;DHT22;10402;49.012;8.370;2023-09-07T13:46:33;27.40;58.10
20487;DHT22;10402;49.012;8.370;2023-09-07T13:48:59;27.40;57.40
20487;DHT22;10402;49.012;8.370;2023-09-07T13:51:25;27.60;57.10
20487;DHT22;10402;49.012;8.370;2023-09-07T13:53:51;27.60;56.50
20487;DHT22;10402;49.012;8.370;2023-09-07T13:56:20;27.60;56.40
20487;DHT22;10402;49.012;8.370;2023-09-07T13:58:46;27.70;56.50
20487;DHT22;10402;49.012;8.370;2023-09-07T14:01:11;27.70;56.30
20487;DHT22;10402;49.012;8.370;2023-09-07T14:03:37;27.80;56.20
20487;DHT22;10402;49.012;8.370;2023-09-07T14:06:02;27.70;56.10
20487;DHT22;10402;49.012;8.370;2023-09-07T14:08:28;27.80;55.90
20487;DHT22;10402;49.012;8.370;2023-09-07T14:10:55;27.80;55.90
20487;DHT22;10402;49.012;8.370;2023-09-07T14:13:21;27.80;55.70
20487;DHT22;10402;49.012;8.370;2023-09-07T14:15:47;27.80;55.50
20487;DHT22;10402;49.012;8.370;2023-09-07T14:18:12;27.80;55.40
20487;DHT22;10402;49.012;8.370;2023-09-07T14:20:38;27.90;55.40
20487;DHT22;10402;49.012;8.370;2023-09-07T14:23:03;28.00;55.20
20487;DHT22;10402;49.012;8.370;2023-09-07T14:25:30;28.00;55.20
20487;DHT22;10402;49.012;8.370;2023-09-07T14:27:55;27.90;55.30
20487;DHT22;10402;49.012;8.370;2023-09-07T14:30:21;27.90;55.30
20487;DHT22;10402;49.012;8.370;2023-09-07T14:32:47;28.00;55.20
20487;DHT22;10402;49.012;8.370;2023-09-07T14:35:17;28.00;55.30
20487;DHT22;10402;49.012;8.370;2023-09-07T14:37:42;28.00;55.20
20487;DHT22;10402;49.012;8.370;2023-09-07T14:40:08;28.00;54.90
20487;DHT22;10402;49.012;8.370;2023-09-07T14:42:34;28.10;54.70
20487;DHT22;10402;49.012;8.370;2023-09-07T14:45:00;28.10;54.90
20487;DHT22;10402;49.012;8.370;2023-09-07T14:47:30;28.10;54.40
20487;DHT22;10402;49.012;8.370;2023-09-07T14:49:56;28.20;54.60
20487;DHT22;10402;49.012;8.370;2023-09-07T14:52:22;28.20;54.60
20487;DHT22;10402;49.012;8.370;2023-09-07T14:54:51;28.10;54.60
20487;DHT22;10402;49.012;8.370;2023-09-07T14:57:16;28.20;54.20
20487;DHT22;10402;49.012;8.370;2023-09-07T14:59:42;28.20;53.40
20487;DHT22;10402;49.012;8.370;2023-09-07T15:02:07;28.30;53.40
20487;DHT22;10402;49.012;8.370;2023-09-07T15:04:33;28.30;53.40
20487;DHT22;10402;49.012;8.370;2023-09-07T15:06:59;28.30;53.40
20487;DHT22;10402;49.012;8.370;2023-09-07T15:09:25;28.40;53.50
20487;DHT22;10402;49.012;8.370;2023-09-07T15:11:50;28.30;53.10
20487;DHT22;10402;49.012;8.370;2023-09-07T15:14:18;28.40;53.00
20487;DHT22;10402;49.012;8.370;2023-09-07T15:16:44;28.50;53.10
20487;DHT22;10402;49.012;8.370;2023-09-07T15:19:09;28.50;52.80
20487;DHT22;10402;49.012;8.370;2023-09-07T15:21:35;28.50;52.90
20487;DHT22;10402;49.012;8.370;2023-09-07T15:24:00;28.50;53.20
20487;DHT22;10402;49.012;8.370;2023-09-07T15:26:26;28.40;53.30
20487;DHT22;10402;49.012;8.370;2023-09-07T15:28:51;28.40;53.50